createdAt,value
2019-02-17T01:38:03.009Z,5.90
2019-02-17T01:42:15.010Z,5.80
2019-02-17T02:21:05.869Z,5.10
2019-02-17T02:44:48.627Z,4.90
2019-02-17T03:22:35.016Z,4.70
2019-02-17T03:26:41.485Z,4.70
2019-02-17T03:30:50.436Z,4.80
2019-02-17T03:39:17.113Z,4.70
2019-02-17T03:43:23.800Z,4.60
2019-02-17T03:47:52.809Z,4.60
2019-02-17T03:51:59.506Z,4.50
2019-02-17T05:56:12.595Z,3.60
2019-02-17T06:00:23.464Z,3.60
2019-02-17T06:04:31.852Z,3.70
2019-02-17T06:08:39.932Z,3.70
2019-02-17T06:26:55.336Z,3.90
2019-02-17T06:36:31.454Z,4.60
2019-02-17T06:40:38.051Z,4.40
2019-02-17T06:44:47.423Z,4.30
2019-02-17T06:49:00.299Z,4.30
2019-02-17T06:53:08.393Z,4.40
2019-02-17T06:57:19.852Z,4.40
2019-02-17T07:01:31.515Z,4.40
2019-02-17T07:14:57.154Z,4.30
2019-02-17T07:19:03.963Z,4.50
2019-02-17T07:23:11.386Z,4.70
2019-02-17T07:47:03.064Z,4.50
2019-02-17T07:51:34.480Z,4.70
2019-02-17T08:00:43.181Z,4.80
2019-02-17T08:09:40.124Z,5.20
2019-02-17T08:13:48.150Z,5.20
2019-02-17T08:22:44.608Z,5.20
2019-02-17T08:26:51.375Z,5.30
2019-02-17T08:30:59.494Z,5.40
2019-02-17T08:35:05.413Z,5.40
2019-02-17T08:39:12.276Z,5.60
2019-02-17T08:43:18.928Z,5.80
2019-02-17T08:47:29.276Z,6.00
2019-02-17T08:51:35.634Z,6.00
2019-02-17T09:05:22.233Z,6.40
2019-02-17T09:09:28.620Z,6.50
2019-02-17T09:31:54.999Z,7.70
2019-02-17T09:36:03.347Z,7.70
2019-02-17T09:40:14.588Z,7.70
2019-02-17T09:53:06.011Z,8.00
2019-02-17T09:57:14.044Z,8.00
2019-02-17T10:01:42.737Z,7.90
2019-02-17T10:10:59.636Z,8.30
2019-02-17T10:15:13.301Z,8.30
2019-02-17T10:23:38.959Z,8.30
2019-02-17T10:27:53.575Z,8.40
2019-02-17T10:41:35.019Z,8.10
2019-02-17T11:27:54.817Z,9.10
2019-02-17T11:32:04.906Z,9.20
2019-02-17T11:36:13.261Z,9.30
2019-02-17T11:40:19.902Z,9.30
2019-02-17T11:49:00.835Z,9.50
2019-02-17T12:02:24.466Z,9.90
2019-02-17T12:11:03.272Z,9.70
2019-02-17T12:15:11.777Z,9.60
2019-02-17T12:39:36.575Z,9.60
2019-02-17T12:43:45.349Z,9.40
2019-02-17T12:47:57.832Z,9.40
2019-02-17T12:52:03.186Z,9.30
2019-02-17T12:56:50.376Z,9.20
2019-02-17T13:01:04.021Z,9.20
2019-02-17T13:32:53.539Z,9.20
2019-02-17T13:37:00.487Z,9.20
2019-02-17T13:41:09.496Z,9.30
2019-02-17T13:45:15.799Z,9.40
2019-02-17T13:49:25.577Z,9.30
2019-02-17T13:53:32.924Z,9.40
2019-02-17T13:57:43.911Z,9.30
2019-02-17T14:01:57.254Z,9.20
2019-02-17T15:14:24.472Z,8.80
2019-02-17T15:18:54.258Z,8.80
2019-02-17T15:23:00.690Z,8.70
2019-02-17T15:27:13.492Z,8.60
2019-02-17T16:13:05.339Z,8.30
2019-02-17T16:21:48.901Z,8.20
2019-02-17T16:30:31.122Z,8.00
2019-02-17T16:34:38.736Z,8.10
2019-02-17T16:38:48.098Z,8.00
2019-02-17T16:42:54.865Z,8.10
2019-02-17T16:47:04.000Z,8.20
2019-02-17T16:51:12.740Z,8.20
2019-02-17T16:55:25.426Z,8.30
2019-02-17T16:59:32.817Z,8.20
2019-02-17T17:03:40.678Z,8.30
2019-02-17T17:12:24.866Z,8.30
2019-02-17T17:16:32.436Z,8.30
2019-02-17T17:20:39.436Z,8.30
2019-02-17T17:24:48.329Z,8.10
2019-02-17T17:28:55.291Z,8.40
2019-02-17T17:33:05.003Z,8.30
2019-02-17T17:37:13.197Z,8.20
2019-02-17T17:41:20.640Z,8.30
2019-02-17T17:45:28.374Z,8.20
2019-02-17T17:49:35.377Z,8.30
2019-02-17T17:53:45.403Z,8.30
2019-02-17T17:57:55.932Z,8.10
2019-02-17T18:02:03.396Z,8.10
2019-02-17T18:10:51.483Z,8.10
2019-02-17T19:48:43.799Z,8.10
